Time;durP1;ratioP1;P1;durP2;ratioP2;P2;SDS_P1;SDS_P2;PMS_P1;PMS_P2;Temp;Humidity;BMP_temperature;BMP_pressure;BME280_temperature;BME280_humidity;BME280_pressure;Samples;Min_cycle;Max_cycle;Signal;HPM_P1;HPM_P2
2023/02/21 02:15:31;;;;;;;0.50;0.50;;;;;;;7.07;75.25;99426.38;5115470;28;20044;-68
2023/02/21 02:18:32;;;;;;;0.30;0.30;;;;;;;7.19;76.18;99411.25;5116646;28;20047;-67
2023/02/21 02:21:34;;;;;;;0.60;0.60;;;;;;;7.24;74.84;99415.53;5091198;28;20550;-68
2023/02/21 02:24:24;;;;;;;0.30;0.30;;;;;;;7.24;75.40;99419.75;5115247;28;20142;-68
2023/02/21 02:27:14;;;;;;;0.30;0.30;;;;;;;7.30;74.34;99419.78;5116460;28;20047;-69
2023/02/21 02:30:13;;;;;;;0.43;0.43;;;;;;;7.38;75.24;99430.88;5116433;27;20051;-69
2023/02/21 02:33:09;;;;;;;1.45;0.93;;;;;;;7.36;74.48;99424.94;5103862;28;20505;-68
2023/02/21 02:35:46;;;;;;;0.63;0.63;;;;;;;7.28;74.70;99439.25;5116202;28;20043;-68
2023/02/21 02:38:23;;;;;;;0.40;0.40;;;;;;;7.21;74.32;99429.88;5116631;28;20100;-68
2023/02/21 02:41:00;;;;;;;0.30;0.30;;;;;;;7.14;74.48;99439.13;5115179;28;20063;-68
2023/02/21 02:43:32;;;;;;;0.50;0.50;;;;;;;7.03;74.72;99450.03;5116424;28;20052;-68
2023/02/21 02:46:09;;;;;;;0.43;0.43;;;;;;;6.94;74.96;99445.69;5114814;28;20075;-68
2023/02/21 02:48:42;;;;;;;0.22;0.22;;;;;;;6.92;75.50;99438.91;5116349;28;20043;-69
2023/02/21 02:51:16;;;;;;;0.93;0.93;;;;;;;6.91;75.68;99460.03;5115985;28;20071;-69
2023/02/21 02:53:49;;;;;;;0.73;0.73;;;;;;;6.89;75.83;99452.41;5116190;28;20443;-69
2023/02/21 02:56:19;;;;;;;0.30;0.30;;;;;;;6.94;75.90;99449.91;5114561;28;20501;-68
2023/02/21 02:58:52;;;;;;;;;;;;;;;6.88;75.55;99444.78;5114998;28;20040;-68
2023/02/21 03:01:46;;;;;;;0.30;0.30;;;;;;;6.87;76.25;99443.06;5114544;28;19954;-69
2023/02/21 03:04:35;;;;;;;1.10;0.75;;;;;;;7.00;76.14;99445.78;5102411;28;20050;-67
2023/02/21 03:07:17;;;;;;;1.13;0.70;;;;;;;7.01;76.21;99446.59;5114430;28;20052;-69
2023/02/21 03:09:58;;;;;;;0.55;0.55;;;;;;;6.95;75.88;99449.09;5114411;28;20052;-69
2023/02/21 03:12:35;;;;;;;0.40;0.40;;;;;;;6.96;76.71;99448.25;5115527;28;20122;-69
2023/02/21 03:15:12;;;;;;;0.20;0.20;;;;;;;7.02;76.45;99448.31;5114229;28;20516;-68
2023/02/21 03:17:46;;;;;;;0.38;0.38;;;;;;;6.98;76.18;99438.97;5114218;28;20131;-69
2023/02/21 03:20:18;;;;;;;0.30;0.30;;;;;;;6.88;76.28;99439.72;5114914;28;20555;-67
2023/02/21 03:22:51;;;;;;;0.30;0.30;;;;;;;6.86;76.78;99438.84;5115626;28;20075;-67
2023/02/21 03:25:23;;;;;;;0.98;0.90;;;;;;;7.18;76.74;99429.84;5114175;28;20051;-68
2023/02/21 03:27:55;;;;;;;0.50;0.50;;;;;;;7.50;76.37;99433.50;5115241;28;20405;-68
2023/02/21 03:30:29;;;;;;;1.02;0.95;;;;;;;7.65;75.97;99443.78;5113999;28;20058;-68
2023/02/21 03:33:00;;;;;;;0.30;0.30;;;;;;;7.65;75.47;99431.06;5115732;28;20047;-68
2023/02/21 03:35:30;;;;;;;2.35;1.13;;;;;;;7.61;75.25;99426.78;5114167;28;20091;-68
2023/02/21 03:38:01;;;;;;;1.15;1.05;;;;;;;7.67;74.79;99421.78;5113786;28;20071;-69
2023/02/21 03:40:32;;;;;;;0.40;0.40;;;;;;;7.78;74.82;99422.69;5113868;28;20047;-68
2023/02/21 03:43:06;;;;;;;0.30;0.30;;;;;;;7.76;74.06;99416.75;5114980;28;20101;-68
2023/02/21 03:45:48;;;;;;;0.25;0.25;;;;;;;7.60;74.65;99422.56;5113737;28;20085;-68
2023/02/21 03:48:19;;;;;;;0.40;0.40;;;;;;;7.55;74.45;99431.84;5114076;28;20048;-68
2023/02/21 03:51:14;;;;;;;0.32;0.32;;;;;;;7.54;74.51;99435.22;5114830;28;20071;-68
2023/02/21 03:53:45;;;;;;;0.30;0.30;;;;;;;7.34;75.16;99434.22;5114752;28;20047;-68
2023/02/21 03:56:14;;;;;;;0.30;0.30;;;;;;;7.12;74.48;99434.88;5113898;28;20096;-68
2023/02/21 03:58:55;;;;;;;0.38;0.38;;;;;;;6.96;75.77;99435.59;5114574;28;20044;-68
2023/02/21 04:01:23;;;;;;;0.40;0.40;;;;;;;6.93;75.92;99443.16;5113638;28;20027;-67
2023/02/21 04:03:54;;;;;;;3.72;0.85;;;;;;;6.84;76.24;99418.53;5114540;28;20296;-68
2023/02/21 04:06:24;;;;;;;0.30;0.30;;;;;;;6.81;76.44;99432.88;5114529;28;20063;-68
2023/02/21 04:08:54;;;;;;;0.32;0.32;;;;;;;6.91;77.42;99439.75;5113197;28;20067;-67
2023/02/21 04:11:26;;;;;;;0.30;0.30;;;;;;;7.08;76.25;99431.44;5114450;28;20092;-69
2023/02/21 04:13:55;;;;;;;0.22;0.22;;;;;;;7.18;76.57;99424.75;5113454;28;20393;-67
2023/02/21 04:16:24;;;;;;;0.35;0.35;;;;;;;7.48;76.26;99425.03;5114426;28;20044;-68
2023/02/21 04:18:56;;;;;;;0.30;0.30;;;;;;;7.54;76.34;99430.13;5113898;28;20105;-68
2023/02/21 04:21:26;;;;;;;0.30;0.30;;;;;;;7.56;75.53;99431.00;5114522;28;20439;-68
2023/02/21 04:23:58;;;;;;;0.25;0.25;;;;;;;7.51;76.24;99440.25;5113389;28;20051;-69
2023/02/21 04:26:33;;;;;;;0.30;0.30;;;;;;;7.50;75.81;99427.56;5113632;28;20050;-68
2023/02/21 04:29:04;;;;;;;0.30;0.30;;;;;;;7.46;76.19;99430.94;5112974;28;20100;-68
2023/02/21 04:31:34;;;;;;;0.73;0.73;;;;;;;7.55;75.71;99436.06;5114151;28;20044;-67
2023/02/21 04:34:08;;;;;;;0.30;0.30;;;;;;;7.83;75.54;99436.25;5114104;28;20054;-68
2023/02/21 04:36:43;;;;;;;0.50;0.50;;;;;;;7.96;74.81;99435.50;5114092;28;20082;-68
2023/02/21 04:39:14;;;;;;;0.40;0.40;;;;;;;8.02;75.12;99440.59;5114014;28;20039;-68
2023/02/21 04:41:43;;;;;;;0.50;0.50;;;;;;;7.97;74.06;99437.19;5112768;28;20131;-68
2023/02/21 04:44:13;;;;;;;0.40;0.40;;;;;;;7.90;75.43;99432.91;5113956;28;20039;-68
2023/02/21 04:46:41;;;;;;;1.30;1.17;;;;;;;7.79;74.62;99426.06;5113104;28;20052;-68
2023/02/21 04:49:12;;;;;;;0.40;0.40;;;;;;;7.75;75.37;99422.66;5112787;28;20039;-67
2023/02/21 04:51:41;;;;;;;0.30;0.30;;;;;;;7.68;74.76;99397.22;5113801;28;20503;-68
2023/02/21 04:54:10;;;;;;;1.47;0.63;;;;;;;7.82;75.76;99416.75;5113881;28;20516;-67
2023/02/21 04:56:43;;;;;;;1.08;1.00;;;;;;;7.93;74.94;99412.63;5113913;28;20280;-67
2023/02/21 04:59:11;;;;;;;0.50;0.50;;;;;;;7.99;74.13;99412.63;5114172;28;20112;-68
2023/02/21 05:01:40;;;;;;;1.50;1.00;;;;;;;8.04;74.93;99413.50;5113661;28;20071;-68
2023/02/21 05:04:09;;;;;;;0.57;0.50;;;;;;;8.04;74.59;99413.50;5113844;28;20562;-68
2023/02/21 05:06:38;;;;;;;0.20;0.20;;;;;;;7.99;74.56;99410.09;5113814;28;20085;-69
2023/02/21 05:09:07;;;;;;;0.40;0.40;;;;;;;7.98;75.03;99402.47;5114078;28;20439;-68
2023/02/21 05:11:35;;;;;;;0.30;0.30;;;;;;;7.98;74.80;99403.31;5113725;28;20075;-68
2023/02/21 05:14:06;;;;;;;0.20;0.20;;;;;;;7.95;74.43;99405.00;5113725;28;20040;-68
2023/02/21 05:16:35;;;;;;;0.50;0.50;;;;;;;7.84;75.05;99407.50;5113767;28;20047;-68
2023/02/21 05:19:04;;;;;;;0.75;0.75;;;;;;;7.75;74.32;99407.41;5113689;28;20458;-68
2023/02/21 05:21:37;;;;;;;0.43;0.43;;;;;;;7.63;75.08;99404.78;5114073;28;20474;-68
2023/02/21 05:24:07;;;;;;;1.58;1.08;;;;;;;7.45;75.17;99409.75;5113718;28;20275;-68
2023/02/21 05:26:37;;;;;;;;;;;;;;;7.56;75.90;99399.69;5114321;28;20127;-69
2023/02/21 05:29:06;;;;;;;;;;;;;;;7.57;75.00;99394.63;5114015;28;19920;-68
2023/02/21 05:31:35;;;;;;;;;;;;;;;7.44;75.64;99397.91;5114211;28;19998;-68
2023/02/21 05:34:04;;;;;;;2.67;1.67;;;;;;;7.21;76.22;99404.50;5113539;28;19919;-68
2023/02/21 05:36:33;;;;;;;0.50;0.50;;;;;;;7.03;75.51;99420.41;5113821;28;20039;-67
2023/02/21 05:39:01;;;;;;;1.02;0.98;;;;;;;6.86;76.07;99413.50;5115111;28;20130;-68
2023/02/21 05:41:30;;;;;;;0.30;0.30;;;;;;;6.87;76.64;99423.63;5117737;28;20028;-68
2023/02/21 05:43:59;;;;;;;0.45;0.45;;;;;;;6.88;77.03;99419.41;5117257;28;20050;-67
2023/02/21 05:46:31;;;;;;;0.35;0.35;;;;;;;6.93;77.21;99412.72;5117204;28;20040;-68
2023/02/21 05:49:02;;;;;;;0.95;0.75;;;;;;;7.07;77.24;99426.38;5117084;28;20052;-69
2023/02/21 05:51:34;;;;;;;0.80;0.80;;;;;;;7.11;77.44;99425.56;5117085;28;20055;-68
2023/02/21 05:54:03;;;;;;;0.20;0.20;;;;;;;7.14;77.29;99423.03;5116881;27;20040;-68
2023/02/21 05:56:38;;;;;;;0.47;0.47;;;;;;;7.21;77.36;99432.41;5117323;28;20039;-68
2023/02/21 05:59:07;;;;;;;0.40;0.40;;;;;;;7.31;77.77;99432.50;5117026;28;20047;-67
2023/02/21 06:01:38;;;;;;;0.77;0.77;;;;;;;7.43;77.86;99436.84;5116842;28;20081;-67
2023/02/21 06:04:07;;;;;;;0.55;0.55;;;;;;;7.51;76.93;99440.25;5117195;28;20043;-67
2023/02/21 06:06:36;;;;;;;0.60;0.60;;;;;;;7.67;76.67;99437.00;5116825;28;20071;-67
2023/02/21 06:09:06;;;;;;;0.63;0.63;;;;;;;7.75;76.63;99440.44;5116659;28;20148;-66
2023/02/21 06:11:37;;;;;;;1.20;0.63;;;;;;;7.72;76.36;99439.56;5116596;28;20135;-66
2023/02/21 06:14:08;;;;;;;0.30;0.30;;;;;;;7.79;76.26;99447.25;5116658;28;20052;-66
2023/02/21 06:16:39;;;;;;;1.10;0.63;;;;;;;7.82;76.27;99447.25;5116554;28;20079;-66
2023/02/21 06:19:09;;;;;;;1.77;0.93;;;;;;;7.81;75.76;99455.72;5116296;28;20059;-66
2023/02/21 06:21:39;;;;;;;0.40;0.40;;;;;;;7.78;76.30;99468.41;5116436;28;20035;-66
2023/02/21 06:24:08;;;;;;;0.50;0.50;;;;;;;7.74;76.44;99464.16;5116409;28;20494;-67
2023/02/21 06:26:37;;;;;;;0.98;0.93;;;;;;;7.68;76.21;99466.63;5116611;28;20047;-66
2023/02/21 06:29:06;;;;;;;0.70;0.70;;;;;;;7.60;76.97;99465.75;5116346;28;20040;-66
2023/02/21 06:31:35;;;;;;;0.40;0.40;;;;;;;7.58;77.17;99482.66;5116633;28;20046;-67
2023/02/21 06:34:06;;;;;;;0.73;0.73;;;;;;;7.63;77.45;99475.09;5116110;28;20092;-66
2023/02/21 06:36:38;;;;;;;0.70;0.70;;;;;;;7.67;77.66;99472.56;5116145;28;20071;-66
2023/02/21 06:39:07;;;;;;;0.35;0.35;;;;;;;7.69;77.65;99486.13;5116255;28;20047;-69
2023/02/21 06:41:36;;;;;;;0.63;0.63;;;;;;;7.70;78.32;99480.19;5116007;28;20077;-68
2023/02/21 06:44:05;;;;;;;0.30;0.30;;;;;;;7.70;78.23;99476.81;5115974;28;20036;-68
2023/02/21 06:46:35;;;;;;;0.63;0.63;;;;;;;7.73;78.13;99472.59;5116025;28;20089;-67
2023/02/21 06:49:05;;;;;;;0.95;0.95;;;;;;;7.93;78.07;99481.22;5116138;28;20268;-68
2023/02/21 06:51:35;;;;;;;0.90;0.90;;;;;;;8.09;77.29;99470.28;5115291;28;20493;-67
2023/02/21 06:54:06;;;;;;;0.35;0.35;;;;;;;8.13;77.12;99472.00;5115824;27;20170;-67
2023/02/21 06:56:35;;;;;;;0.25;0.25;;;;;;;8.13;76.58;99462.69;5115881;28;20085;-68
2023/02/21 06:59:05;;;;;;;0.70;0.70;;;;;;;8.13;77.48;99456.75;5115874;28;20089;-68
2023/02/21 07:01:33;;;;;;;0.60;0.60;;;;;;;8.15;77.21;99468.63;5115660;28;20046;-67
2023/02/21 07:04:02;;;;;;;1.38;0.85;;;;;;;8.15;77.48;99455.94;5115557;28;20046;-68
2023/02/21 07:06:33;;;;;;;0.65;0.50;;;;;;;8.18;77.33;99461.03;5115503;28;20042;-68
2023/02/21 07:09:01;;;;;;;0.38;0.38;;;;;;;8.19;77.87;99462.72;5115779;28;20050;-67
2023/02/21 07:11:31;;;;;;;0.30;0.30;;;;;;;8.17;77.52;99469.50;5115612;28;20485;-67
2023/02/21 07:14:00;;;;;;;0.38;0.38;;;;;;;8.21;77.48;99476.28;5115551;28;20075;-67
2023/02/21 07:16:29;;;;;;;0.70;0.70;;;;;;;8.29;77.42;99464.50;5115540;28;20445;-67
2023/02/21 07:18:58;;;;;;;0.67;0.67;;;;;;;8.42;77.33;99476.44;5115419;28;20062;-67
2023/02/21 07:21:27;;;;;;;0.40;0.40;;;;;;;8.64;77.61;99473.97;5115348;28;20044;-67
2023/02/21 07:23:57;;;;;;;0.45;0.45;;;;;;;8.88;77.63;99473.19;5115601;28;20162;-67
2023/02/21 07:26:26;;;;;;;0.75;0.63;;;;;;;9.13;76.56;99464.78;5115259;28;20117;-67
2023/02/21 07:28:55;;;;;;;0.93;0.93;;;;;;;9.33;76.99;99473.25;5115225;28;20059;-67
2023/02/21 07:31:24;;;;;;;3.58;1.83;;;;;;;9.54;76.05;99477.53;5114994;28;20093;-67
2023/02/21 07:33:53;;;;;;;2.00;0.93;;;;;;;9.73;75.48;99486.03;5111931;28;20134;-67
2023/02/21 07:36:22;;;;;;;1.63;1.40;;;;;;;9.90;74.62;99486.84;5097420;28;20555;-67
2023/02/21 07:38:54;;;;;;;0.38;0.38;;;;;;;10.10;74.52;99487.69;5094573;28;20048;-67
2023/02/21 07:41:24;;;;;;;0.40;0.40;;;;;;;10.26;73.81;99476.63;5094613;28;20040;-68
2023/02/21 07:43:53;;;;;;;0.73;0.73;;;;;;;10.39;73.36;99482.53;5094888;28;20390;-68
2023/02/21 07:46:27;;;;;;;3.10;2.90;;;;;;;10.53;72.98;99481.63;5094528;28;20051;-68
2023/02/21 07:48:56;;;;;;;1.02;0.93;;;;;;;10.63;72.28;99473.06;5094583;28;20044;-68
2023/02/21 07:51:28;;;;;;;0.73;0.65;;;;;;;10.75;71.74;99460.25;5094303;28;20513;-68
2023/02/21 07:53:57;;;;;;;1.23;0.77;;;;;;;10.86;71.61;99464.47;5094586;28;20078;-68
2023/02/21 07:56:27;;;;;;;1.80;0.63;;;;;;;11.00;70.85;99472.88;5094149;28;20040;-68
2023/02/21 07:58:56;;;;;;;0.68;0.68;;;;;;;11.06;70.48;99462.66;5094186;27;20329;-68
2023/02/21 08:01:26;;;;;;;0.60;0.60;;;;;;;11.04;70.36;99464.34;5105548;28;20509;-68
2023/02/21 08:03:54;;;;;;;0.80;0.80;;;;;;;11.03;70.44;99467.78;5114459;28;20131;-68
2023/02/21 08:06:23;;;;;;;7.78;1.65;;;;;;;11.20;69.79;99455.75;5114417;28;20039;-68
2023/02/21 08:08:52;;;;;;;0.87;0.87;;;;;;;11.38;69.91;99461.56;5093998;28;20044;-68
2023/02/21 08:11:20;;;;;;;3.92;1.85;;;;;;;11.53;69.58;99465.72;5094351;28;20044;-69
2023/02/21 08:13:50;;;;;;;0.63;0.63;;;;;;;11.49;68.88;99466.59;5094367;28;20451;-68
2023/02/21 08:16:20;;;;;;;0.52;0.52;;;;;;;11.53;68.48;99460.59;5094552;28;20450;-68
2023/02/21 08:18:50;;;;;;;0.70;0.70;;;;;;;11.71;68.45;99465.56;5100649;28;20044;-68
2023/02/21 08:21:18;;;;;;;0.50;0.50;;;;;;;11.83;68.16;99460.34;5114297;28;20100;-69
2023/02/21 08:23:47;;;;;;;12.27;1.67;;;;;;;11.86;68.08;99465.44;5113700;28;20035;-69
2023/02/21 08:26:16;;;;;;;1.13;1.03;;;;;;;11.87;67.46;99467.16;5114422;28;20122;-69
2023/02/21 08:28:45;;;;;;;0.40;0.40;;;;;;;11.87;67.81;99464.59;5114273;28;20268;-69
2023/02/21 08:31:15;;;;;;;0.77;0.77;;;;;;;11.94;67.82;99473.03;5114172;28;20048;-69
2023/02/21 08:33:45;;;;;;;1.88;1.52;;;;;;;12.01;67.35;99465.31;5114129;28;20067;-69
2023/02/21 08:36:14;;;;;;;1.38;1.27;;;;;;;12.06;67.39;99458.44;5107614;28;20067;-68
2023/02/21 08:38:42;;;;;;;0.80;0.73;;;;;;;12.09;66.99;99457.56;5093569;28;20048;-68
2023/02/21 08:41:11;;;;;;;0.50;0.50;;;;;;;12.12;67.22;99451.56;5093569;28;20040;-68
2023/02/21 08:43:41;;;;;;;0.90;0.88;;;;;;;12.10;67.27;99444.72;5093570;28;20068;-68
2023/02/21 08:46:10;;;;;;;8.50;0.80;;;;;;;12.19;66.89;99450.63;5093572;28;20513;-69
2023/02/21 08:48:41;;;;;;;2.30;0.90;;;;;;;12.16;66.95;99445.53;5093824;28;20571;-69
2023/02/21 08:51:10;;;;;;;0.32;0.32;;;;;;;12.28;67.19;99442.84;5075208;28;20044;-69
2023/02/21 08:53:40;;;;;;;1.07;0.90;;;;;;;12.37;66.91;99450.41;5097415;28;20044;-68
2023/02/21 08:56:10;;;;;;;0.30;0.30;;;;;;;12.27;66.48;99446.25;5112508;28;20043;-68
2023/02/21 08:58:39;;;;;;;0.40;0.40;;;;;;;12.22;66.79;99440.34;5113762;28;20050;-68
2023/02/21 09:01:08;;;;;;;1.13;1.03;;;;;;;12.21;66.51;99456.56;5113891;28;20036;-68
2023/02/21 09:03:36;;;;;;;0.47;0.47;;;;;;;12.25;66.68;99455.66;5113639;28;20047;-68
2023/02/21 09:06:07;;;;;;;0.60;0.60;;;;;;;12.33;66.04;99456.44;5113818;28;20123;-67
2023/02/21 09:08:37;;;;;;;0.40;0.40;;;;;;;12.33;66.07;99461.56;5114052;28;20051;-67
2023/02/21 09:11:06;;;;;;;1.38;1.27;;;;;;;12.39;66.11;99462.31;5113778;28;20392;-69
2023/02/21 09:13:35;;;;;;;0.40;0.40;;;;;;;12.38;66.16;99470.84;5115589;28;20505;-68
2023/02/21 09:16:04;;;;;;;0.30;0.30;;;;;;;12.41;65.96;99470.81;5117759;28;20363;-68
2023/02/21 09:18:33;;;;;;;0.82;0.75;;;;;;;12.51;65.98;99485.22;5117855;28;20086;-66
2023/02/21 09:21:02;;;;;;;0.93;0.93;;;;;;;12.74;66.42;99474.72;5117559;28;20584;-68
2023/02/21 09:23:32;;;;;;;0.40;0.40;;;;;;;12.90;65.68;99476.19;5117624;28;20097;-68
2023/02/21 09:26:01;;;;;;;0.40;0.40;;;;;;;12.93;65.22;99460.78;5117867;28;20131;-68
2023/02/21 09:28:31;;;;;;;4.90;1.07;;;;;;;12.99;65.09;99459.84;5110475;28;20055;-68
2023/02/21 09:30:59;;;;;;;;;;;;;;;13.02;64.62;99462.38;5106739;28;20543;-68
2023/02/21 09:33:29;;;;;;;11.02;0.70;;;;;;;13.19;65.03;99468.97;5116619;28;20026;-67
2023/02/21 09:35:59;;;;;;;0.85;0.85;;;;;;;13.28;64.21;99463.72;5117659;28;20365;-68
2023/02/21 09:38:28;;;;;;;0.50;0.50;;;;;;;13.26;63.99;99460.34;5117352;28;20134;-67
2023/02/21 09:41:01;;;;;;;0.50;0.50;;;;;;;13.28;63.72;99453.47;5117247;28;20075;-68
2023/02/21 09:43:34;;;;;;;0.40;0.40;;;;;;;13.41;63.89;99465.19;5117250;28;20100;-67
2023/02/21 09:46:09;;;;;;;0.30;0.30;;;;;;;13.53;63.50;99465.91;5117190;28;20059;-67
2023/02/21 09:48:40;;;;;;;0.50;0.50;;;;;;;13.68;63.41;99457.94;5117457;28;20043;-67
2023/02/21 09:51:12;;;;;;;0.90;0.82;;;;;;;13.60;63.08;99467.50;5117683;28;20127;-67
2023/02/21 09:53:44;;;;;;;1.45;0.85;;;;;;;13.67;63.22;99467.38;5107398;28;20042;-67
2023/02/21 09:56:22;;;;;;;0.57;0.57;;;;;;;13.77;62.89;99473.19;5102331;28;20135;-68
2023/02/21 09:58:50;;;;;;;1.30;1.20;;;;;;;13.91;62.34;99466.94;5098601;28;20046;-69
2023/02/21 10:01:31;;;;;;;0.43;0.43;;;;;;;14.03;62.17;99471.88;5113605;28;20501;-67
2023/02/21 10:04:15;;;;;;;0.77;0.77;;;;;;;13.97;61.88;99460.84;5116086;28;20047;-68
2023/02/21 10:06:50;;;;;;;0.98;0.75;;;;;;;14.00;61.48;99476.19;5116910;28;20050;-67
2023/02/21 10:09:31;;;;;;;0.50;0.50;;;;;;;14.06;61.49;99476.06;5116762;28;20074;-66
2023/02/21 10:12:10;;;;;;;0.40;0.40;;;;;;;14.06;61.80;99481.19;5102622;28;20113;-68
2023/02/21 10:15:02;;;;;;;0.98;0.98;;;;;;;14.17;61.56;99474.16;5115490;28;20047;-68
2023/02/21 10:17:36;;;;;;;0.50;0.50;;;;;;;14.32;61.51;99467.94;5114994;28;20051;-67
2023/02/21 10:20:13;;;;;;;0.55;0.55;;;;;;;14.53;61.85;99470.94;5116695;28;20048;-66
2023/02/21 10:22:46;;;;;;;0.70;0.70;;;;;;;14.53;61.29;99465.78;5116521;28;20048;-67
2023/02/21 10:25:24;;;;;;;0.60;0.60;;;;;;;14.55;61.14;99464.03;5115392;28;20130;-67
2023/02/21 10:27:55;;;;;;;0.60;0.60;;;;;;;14.76;60.94;99449.88;5116060;28;20047;-67
2023/02/21 10:30:34;;;;;;;0.90;0.75;;;;;;;14.74;60.53;99457.63;5115967;28;20046;-68
2023/02/21 10:33:05;;;;;;;0.50;0.50;;;;;;;14.72;60.33;99449.13;5099422;28;20405;-67
2023/02/21 10:35:38;;;;;;;0.65;0.65;;;;;;;14.76;60.25;99462.72;5116066;28;20097;-66
2023/02/21 10:38:10;;;;;;;0.85;0.85;;;;;;;14.82;60.17;99454.91;5116612;28;20062;-67
2023/02/21 10:40:42;;;;;;;1.35;1.05;;;;;;;14.88;60.00;99454.75;5116493;28;20044;-67
2023/02/21 10:43:17;;;;;;;0.40;0.40;;;;;;;14.72;59.60;99456.84;5116108;28;20044;-66
2023/02/21 10:45:53;;;;;;;0.40;0.40;;;;;;;14.89;59.82;99450.47;5116062;28;20067;-66
2023/02/21 10:48:28;;;;;;;0.40;0.40;;;;;;;14.91;59.97;99453.84;5116044;28;20043;-66
2023/02/21 10:51:08;;;;;;;1.38;0.90;;;;;;;14.99;60.05;99451.97;5115996;27;20039;-66
2023/02/21 10:53:39;;;;;;;0.40;0.40;;;;;;;14.92;59.73;99468.41;5116233;28;20071;-66
2023/02/21 10:56:25;;;;;;;0.60;0.60;;;;;;;15.11;59.69;99461.97;5115883;28;20040;-66
2023/02/21 10:58:59;;;;;;;2.67;1.67;;;;;;;15.02;60.00;99457.88;5116209;28;20481;-66
2023/02/21 11:01:36;;;;;;;0.50;0.50;;;;;;;14.78;59.97;99459.25;5116221;28;20138;-66
2023/02/21 11:04:07;;;;;;;0.45;0.45;;;;;;;14.64;60.23;99461.28;5112675;28;20397;-67
2023/02/21 11:06:39;;;;;;;0.55;0.55;;;;;;;14.38;60.31;99463.53;5114484;28;20040;-66
2023/02/21 11:09:24;;;;;;;0.85;0.82;;;;;;;14.27;60.62;99460.28;5094931;28;20048;-66
2023/02/21 11:12:02;;;;;;;0.40;0.40;;;;;;;14.12;60.43;99465.72;5095214;28;20489;-66
2023/02/21 11:14:34;;;;;;;0.60;0.60;;;;;;;14.08;60.59;99459.78;5094615;28;20062;-66
2023/02/21 11:17:22;;;;;;;0.40;0.40;;;;;;;14.09;61.38;99460.63;5095715;28;20429;-67
2023/02/21 11:19:53;;;;;;;0.60;0.60;;;;;;;13.96;61.12;99461.75;5096483;28;20135;-68
2023/02/21 11:22:25;;;;;;;1.85;0.50;;;;;;;14.00;61.54;99460.78;5094816;28;20094;-66
2023/02/21 11:25:00;;;;;;;0.68;0.68;;;;;;;14.16;61.86;99451.09;5094946;28;20051;-66
2023/02/21 11:27:33;;;;;;;0.50;0.50;;;;;;;14.36;61.47;99455.00;5095099;28;20443;-65
2023/02/21 11:30:18;;;;;;;0.55;0.55;;;;;;;14.64;60.67;99451.00;5094855;28;20127;-66
2023/02/21 11:32:51;;;;;;;0.85;0.85;;;;;;;14.74;60.12;99446.50;5096925;28;20496;-68
2023/02/21 11:35:25;;;;;;;0.63;0.63;;;;;;;14.95;59.98;99435.75;5104456;28;20498;-66
2023/02/21 11:37:58;;;;;;;1.60;1.15;;;;;;;15.02;59.77;99446.78;5094570;28;20040;-65
2023/02/21 11:40:36;;;;;;;0.45;0.45;;;;;;;14.90;59.50;99444.47;5094471;28;20044;-65
2023/02/21 11:43:19;;;;;;;0.38;0.38;;;;;;;14.84;59.32;99440.31;5094740;28;20502;-66
2023/02/21 11:46:02;;;;;;;0.60;0.57;;;;;;;14.80;59.61;99436.13;5094449;28;20048;-66
2023/02/21 11:48:37;;;;;;;0.52;0.52;;;;;;;14.52;59.45;99440.97;5098684;28;20135;-67
2023/02/21 11:51:17;;;;;;;1.70;1.05;;;;;;;14.36;59.89;99439.59;5111746;28;20500;-66
2023/02/21 11:53:46;;;;;;;0.47;0.47;;;;;;;14.20;60.09;99438.19;5094454;28;20120;-66
2023/02/21 11:56:27;;;;;;;0.55;0.55;;;;;;;14.05;60.89;99434.19;5094573;28;20047;-65
2023/02/21 11:59:06;;;;;;;0.85;0.77;;;;;;;13.95;61.47;99426.69;5094381;28;20040;-66
2023/02/21 12:01:41;;;;;;;0.40;0.40;;;;;;;14.03;61.29;99427.38;5094319;28;20052;-66
2023/02/21 12:04:21;;;;;;;0.52;0.50;;;;;;;14.24;61.12;99423.56;5094437;28;20376;-66
2023/02/21 12:07:01;;;;;;;0.60;0.60;;;;;;;14.44;61.08;99422.31;5094447;28;20062;-66
2023/02/21 12:09:42;;;;;;;0.50;0.50;;;;;;;14.41;60.90;99422.38;5094453;28;20054;-66
2023/02/21 12:12:27;;;;;;;0.50;0.50;;;;;;;14.40;60.85;99414.69;5093229;28;20040;-66
2023/02/21 12:15:07;;;;;;;0.60;0.60;;;;;;;14.30;60.86;99406.34;5093614;28;20054;-66
2023/02/21 12:17:52;;;;;;;0.60;0.60;;;;;;;14.19;61.88;99415.94;5093951;28;20056;-66
2023/02/21 12:20:43;;;;;;;0.80;0.75;;;;;;;14.21;61.60;99408.19;5094000;28;20079;-67
2023/02/21 12:23:19;;;;;;;0.50;0.50;;;;;;;14.32;61.75;99412.31;5104528;28;20101;-66
2023/02/21 12:25:57;;;;;;;1.05;0.98;;;;;;;14.46;61.88;99409.44;5100754;28;20108;-66
2023/02/21 12:28:40;;;;;;;0.60;0.60;;;;;;;14.55;61.12;99417.81;5099325;28;20085;-66
2023/02/21 12:31:26;;;;;;;0.43;0.43;;;;;;;14.38;61.58;99401.91;5113934;28;20043;-66
2023/02/21 12:34:10;;;;;;;0.60;0.60;;;;;;;14.33;61.10;99398.56;5102730;28;20065;-66
2023/02/21 12:36:58;;;;;;;5.60;0.93;;;;;;;14.16;61.18;99410.03;5095484;28;20044;-66
2023/02/21 12:39:46;;;;;;;6.47;1.15;;;;;;;14.11;61.77;99407.53;5093659;28;20047;-65
2023/02/21 12:42:30;;;;;;;0.40;0.40;;;;;;;14.06;61.49;99399.06;5103155;28;20039;-66
2023/02/21 12:45:15;;;;;;;0.70;0.70;;;;;;;14.07;61.56;99380.25;5098726;28;20035;-66
2023/02/21 12:47:51;;;;;;;0.63;0.55;;;;;;;14.07;61.67;99385.38;5113704;28;20043;-66
2023/02/21 12:50:25;;;;;;;1.15;0.98;;;;;;;14.05;61.86;99382.84;5113652;28;20049;-68
2023/02/21 12:53:01;;;;;;;0.60;0.60;;;;;;;14.08;61.94;99382.78;5108878;28;20040;-66
2023/02/21 12:55:34;;;;;;;0.60;0.60;;;;;;;14.00;61.90;99381.25;5092789;28;20048;-66
2023/02/21 12:58:11;;;;;;;0.35;0.35;;;;;;;13.87;61.61;99377.22;5094166;28;20051;-66
2023/02/21 13:00:46;;;;;;;0.50;0.50;;;;;;;13.81;61.64;99378.19;5113901;28;20051;-66
2023/02/21 13:03:34;;;;;;;0.75;0.75;;;;;;;13.79;61.94;99379.09;5113807;28;20508;-66
2023/02/21 13:06:11;;;;;;;0.60;0.60;;;;;;;13.86;62.23;99370.41;5113974;28;20392;-66
2023/02/21 13:08:50;;;;;;;0.40;0.40;;;;;;;13.91;62.35;99384.00;5113794;28;20043;-64
2023/02/21 13:11:27;;;;;;;1.02;0.93;;;;;;;13.92;62.71;99380.53;5114048;28;20048;-66
2023/02/21 13:13:58;;;;;;;5.43;1.00;;;;;;;13.90;62.02;99387.44;5113883;28;20170;-66
2023/02/21 13:16:27;;;;;;;0.35;0.35;;;;;;;13.85;62.14;99378.97;5114034;28;20047;-65
2023/02/21 13:19:02;;;;;;;0.50;0.50;;;;;;;13.78;62.33;99379.94;5113683;28;20039;-65
2023/02/21 13:21:49;;;;;;;1.45;0.95;;;;;;;13.73;62.21;99392.00;5113644;28;20039;-65
2023/02/21 13:24:33;;;;;;;2.25;1.40;;;;;;;13.68;62.83;99381.00;5113852;28;20493;-65
2023/02/21 13:27:25;;;;;;;0.50;0.47;;;;;;;13.66;63.09;99387.88;5113598;28;20047;-65
2023/02/21 13:30:03;;;;;;;0.50;0.50;;;;;;;13.63;62.94;99395.66;5111614;28;20082;-65
2023/02/21 13:32:39;;;;;;;0.65;0.65;;;;;;;13.56;62.80;99396.59;5113470;28;20071;-66
2023/02/21 13:35:10;;;;;;;0.40;0.40;;;;;;;13.49;63.10;99392.44;5113878;28;20398;-65
2023/02/21 13:37:50;;;;;;;2.30;1.00;;;;;;;13.42;63.55;99395.13;5113389;28;20047;-66
2023/02/21 13:40:23;;;;;;;0.60;0.60;;;;;;;13.40;63.40;99391.75;5113819;28;20405;-65
2023/02/21 13:43:05;;;;;;;0.30;0.30;;;;;;;13.38;63.87;99388.38;5113748;28;20050;-65
2023/02/21 13:45:34;;;;;;;0.30;0.30;;;;;;;13.36;63.77;99390.09;5113405;28;20051;-65
2023/02/21 13:48:31;;;;;;;0.70;0.67;;;;;;;13.39;63.94;99386.63;5113348;28;20052;-65
2023/02/21 13:51:01;;;;;;;2.35;1.60;;;;;;;13.33;63.73;99399.56;5113570;28;20363;-65
2023/02/21 13:53:34;;;;;;;1.55;1.45;;;;;;;13.21;63.79;99390.34;5113422;28;20050;-65
2023/02/21 13:56:19;;;;;;;1.25;1.00;;;;;;;13.13;64.12;99397.31;5113393;28;20126;-65
2023/02/21 13:58:49;;;;;;;0.70;0.70;;;;;;;13.07;64.50;99410.22;5113552;28;20079;-65
2023/02/21 14:01:46;;;;;;;1.25;1.13;;;;;;;13.05;64.57;99398.28;5117254;28;20062;-65
2023/02/21 14:04:36;;;;;;;0.80;0.80;;;;;;;12.99;64.47;99404.34;5116852;28;20048;-65
2023/02/21 14:07:04;;;;;;;1.27;1.02;;;;;;;12.94;64.54;99406.09;5116750;28;20039;-65
2023/02/21 14:09:41;;;;;;;0.32;0.32;;;;;;;12.91;64.74;99411.28;5116850;28;20055;-66
2023/02/21 14:12:14;;;;;;;0.35;0.35;;;;;;;12.90;64.90;99412.16;5116963;28;20477;-65
2023/02/21 14:14:46;;;;;;;0.35;0.35;;;;;;;12.89;64.91;99413.00;5116746;28;20088;-64
2023/02/21 14:17:16;;;;;;;0.60;0.50;;;;;;;12.87;65.03;99413.91;5116649;28;20113;-65
2023/02/21 14:19:51;;;;;;;0.80;0.80;;;;;;;12.80;64.88;99410.59;5116367;28;20105;-65
2023/02/21 14:22:28;;;;;;;0.73;0.73;;;;;;;12.79;64.80;99406.31;5116548;28;20075;-65
2023/02/21 14:25:08;;;;;;;0.30;0.30;;;;;;;12.76;64.96;99411.50;5115461;28;20051;-65